Aviation Digital Data Service (ADDS)

Output produced by TAFs form (1602 UTC 27 February 2017)
found at http://www.aviationweather.gov/adds/tafs/
 
METAR text: NSTU 271550Z 11008KT 10SM FEW021 SCT038 BKN090 27/27 A2983 RMK SLP102 T02720267
Conditions at: NSTU (PAGO PAGO , WS) observed 1550 UTC 27 February 2017
Temperature: 27.2°C (81°F)
Dewpoint: 26.7°C (80°F) [RH = 97%]
Pressure (altimeter): 29.83 inches Hg (1010.2 mb)
[Sea-level pressure: 1010.2 mb]
Winds: from the ESE (110 degrees) at 9 MPH (8 knots; 4.2 m/s)
Visibility: 10 or more miles (16+ km)
Ceiling: 9000 feet AGL
Clouds: few clouds at 2100 feet AGL
scattered clouds at 3800 feet AGL
broken clouds at 9000 feet AGL
Weather: no significant weather observed at this time

Forecast for: NSTU (PAGO PAGO , WS)
Text: NSTU 271140Z 2712/2812 11012KT P6SM VCSH SCT020 SCT040 BKN100
Forecast period: 1200 UTC 27 February 2017 to 1200 UTC 28 February 2017
Forecast type: FROM: standard forecast or significant change
Winds: from the ESE (110 degrees) at 14 MPH (12 knots; 6.2 m/s)
Visibility: 6 or more miles (10+ km)
Ceiling: 10000 feet AGL
Clouds: scattered clouds at 2000 feet AGL
scattered clouds at 4000 feet AGL
broken clouds at 10000 feet AGL
Weather: VCSH  (showers in vicinity)